Time;durP1;ratioP1;P1;durP2;ratioP2;P2;SDS_P1;SDS_P2;PMS_P1;PMS_P2;Temp;Humidity;BMP_temperature;BMP_pressure;BME280_temperature;BME280_humidity;BME280_pressure;Samples;Min_cycle;Max_cycle;Signal;HPM_P1;HPM_P2
2023/05/01 00:02:21;;;;;;;25.48;11.18;;;8.30;99.90;;;;;;4966653;29;20102;-72
2023/05/01 00:04:46;;;;;;;28.73;11.32;;;8.20;99.90;;;;;;4966383;29;20039;-71
2023/05/01 00:07:12;;;;;;;25.17;10.85;;;8.20;99.90;;;;;;4966510;29;20552;-72
2023/05/01 00:09:37;;;;;;;26.63;12.13;;;8.20;99.90;;;;;;4966410;29;20058;-71
2023/05/01 00:12:03;;;;;;;27.95;12.13;;;8.20;99.90;;;;;;4965321;29;20051;-71
2023/05/01 00:14:29;;;;;;;23.85;11.00;;;8.20;99.90;;;;;;4966295;29;20027;-70
2023/05/01 00:16:55;;;;;;;27.75;12.15;;;8.20;99.90;;;;;;4949199;29;20094;-69
2023/05/01 00:19:20;;;;;;;23.10;11.10;;;8.20;99.90;;;;;;4966166;29;20115;-69
2023/05/01 00:21:47;;;;;;;26.23;12.00;;;8.10;99.90;;;;;;4966537;28;20035;-70
2023/05/01 00:24:14;;;;;;;27.73;12.57;;;8.10;99.90;;;;;;4965660;29;20110;-71
2023/05/01 00:26:39;;;;;;;25.38;12.55;;;8.00;99.90;;;;;;4948732;29;20034;-70
2023/05/01 00:29:06;;;;;;;23.05;11.45;;;8.00;99.90;;;;;;4966136;29;20020;-69
2023/05/01 00:31:31;;;;;;;25.70;11.93;;;8.00;99.90;;;;;;4948666;29;20396;-69
2023/05/01 00:33:57;;;;;;;24.42;11.98;;;8.00;99.90;;;;;;4965378;29;20039;-70
2023/05/01 00:36:23;;;;;;;28.42;13.38;;;7.90;99.90;;;;;;4966274;29;20027;-71
2023/05/01 00:38:48;;;;;;;28.60;12.50;;;7.90;99.90;;;;;;4966080;29;20047;-69
2023/05/01 00:41:14;;;;;;;29.23;12.70;;;7.80;99.90;;;;;;4965765;29;20034;-69
2023/05/01 00:43:40;;;;;;;29.27;13.18;;;7.90;99.90;;;;;;4966009;29;20035;-70
2023/05/01 00:46:06;;;;;;;28.67;12.55;;;7.80;99.90;;;;;;4965529;29;20039;-69
2023/05/01 00:48:32;;;;;;;27.35;13.40;;;7.80;99.90;;;;;;4965649;29;20034;-69
2023/05/01 00:51:00;;;;;;;27.52;13.10;;;7.80;99.90;;;;;;4965926;29;20035;-72
2023/05/01 00:53:27;;;;;;;27.27;13.13;;;7.80;99.90;;;;;;4965640;29;20034;-71
2023/05/01 00:55:55;;;;;;;26.40;12.50;;;7.80;99.90;;;;;;4948529;29;20058;-70
2023/05/01 00:58:20;;;;;;;30.23;12.60;;;7.80;99.90;;;;;;4965982;29;20050;-69
2023/05/01 01:00:48;;;;;;;25.38;13.77;;;7.80;99.90;;;;;;4971575;28;20026;-70
2023/05/01 01:03:13;;;;;;;25.92;12.85;;;7.70;99.90;;;;;;4978994;28;20126;-70
2023/05/01 01:05:51;;;;;;;33.90;12.93;;;7.70;99.90;;;;;;4985378;28;20035;-69
2023/05/01 01:08:41;;;;;;;26.73;12.85;;;7.70;99.90;;;;;;4985034;28;20471;-69
2023/05/01 01:11:12;;;;;;;25.95;12.90;;;7.70;99.90;;;;;;4984720;28;20074;-69
2023/05/01 01:13:50;;;;;;;25.10;11.63;;;7.70;99.90;;;;;;4985076;28;20038;-70
2023/05/01 01:16:21;;;;;;;30.08;11.77;;;7.70;99.90;;;;;;4985155;28;20050;-69
2023/05/01 01:19:24;;;;;;;24.08;12.50;;;7.70;99.90;;;;;;4983995;28;20127;-70
2023/05/01 01:21:56;;;;;;;25.83;12.27;;;7.70;99.90;;;;;;4984839;28;20031;-71
2023/05/01 01:24:43;;;;;;;26.95;11.68;;;7.60;99.90;;;;;;4985286;28;20027;-69
2023/05/01 01:27:19;;;;;;;19.92;10.75;;;7.60;99.90;;;;;;4983554;28;20081;-72
2023/05/01 01:30:13;;;;;;;26.85;11.55;;;7.60;99.90;;;;;;4984977;28;20015;-69
2023/05/01 01:32:51;;;;;;;24.00;11.82;;;7.60;99.90;;;;;;4984224;28;20105;-72
2023/05/01 01:35:24;;;;;;;26.13;11.57;;;7.50;99.90;;;;;;4977036;28;20032;-71
2023/05/01 01:38:06;;;;;;;28.42;11.23;;;7.50;99.90;;;;;;4968938;29;20035;-73
2023/05/01 01:40:38;;;;;;;23.92;11.45;;;7.50;99.90;;;;;;4980956;28;20125;-71
2023/05/01 01:43:09;;;;;;;22.83;10.75;;;7.50;99.90;;;;;;4986752;28;20042;-71
2023/05/01 01:45:45;;;;;;;21.42;11.30;;;7.50;99.90;;;;;;4982099;28;20084;-71
2023/05/01 01:48:14;;;;;;;21.75;11.40;;;7.40;99.90;;;;;;4951236;29;20035;-71
2023/05/01 01:50:42;;;;;;;27.52;11.35;;;7.40;99.90;;;;;;4968444;29;20024;-70
2023/05/01 01:53:13;;;;;;;22.90;11.05;;;7.40;99.90;;;;;;4969173;29;20049;-71
2023/05/01 01:55:43;;;;;;;24.58;10.80;;;7.40;99.90;;;;;;4977013;28;20078;-72
2023/05/01 01:58:10;;;;;;;19.92;10.57;;;7.30;99.90;;;;;;4969850;28;20459;-71
2023/05/01 02:00:40;;;;;;;22.95;10.90;;;7.30;99.90;;;;;;4970424;28;20071;-71
2023/05/01 02:03:06;;;;;;;24.83;10.93;;;7.30;99.90;;;;;;4987761;28;20077;-72
2023/05/01 02:05:33;;;;;;;25.63;10.90;;;7.30;99.90;;;;;;4987511;28;20038;-72
2023/05/01 02:07:59;;;;;;;26.42;10.35;;;7.30;99.90;;;;;;4981494;28;20041;-71
2023/05/01 02:10:26;;;;;;;21.75;10.32;;;7.20;99.90;;;;;;4956119;28;20463;-72
2023/05/01 02:12:54;;;;;;;22.27;10.43;;;7.20;99.90;;;;;;4968116;29;20051;-72
2023/05/01 02:15:21;;;;;;;21.35;10.55;;;7.20;99.90;;;;;;4969033;28;20062;-72
2023/05/01 02:17:49;;;;;;;24.60;10.75;;;7.20;99.90;;;;;;4987568;28;20038;-70
2023/05/01 02:20:15;;;;;;;22.83;10.40;;;7.10;99.90;;;;;;4970078;28;20023;-70
2023/05/01 02:22:41;;;;;;;27.08;11.00;;;7.10;99.90;;;;;;4970572;28;20126;-71
2023/05/01 02:25:11;;;;;;;19.77;10.70;;;7.10;99.90;;;;;;4970301;28;20038;-72
2023/05/01 02:27:46;;;;;;;24.23;10.82;;;7.10;99.90;;;;;;4969972;28;20147;-72
2023/05/01 02:30:12;;;;;;;24.77;11.95;;;7.00;99.90;;;;;;4987516;28;20369;-71
2023/05/01 02:32:38;;;;;;;25.95;11.25;;;7.00;99.90;;;;;;4987181;28;20039;-72
2023/05/01 02:35:04;;;;;;;25.80;11.00;;;6.90;99.90;;;;;;4987641;28;20034;-70
2023/05/01 02:37:30;;;;;;;23.00;10.95;;;6.90;99.90;;;;;;4987641;28;20035;-70
2023/05/01 02:39:56;;;;;;;22.02;10.15;;;6.90;99.90;;;;;;4969906;28;20059;-71
2023/05/01 02:42:23;;;;;;;29.67;11.27;;;6.90;99.90;;;;;;4987459;28;20030;-71
2023/05/01 02:45:07;;;;;;;26.73;11.48;;;6.90;99.90;;;;;;4969101;28;20035;-71
2023/05/01 02:47:36;;;;;;;21.48;10.38;;;6.90;99.90;;;;;;4987129;28;20034;-72
2023/05/01 02:50:04;;;;;;;18.02;10.07;;;6.90;99.90;;;;;;4970014;28;20039;-70
2023/05/01 02:52:30;;;;;;;21.38;11.48;;;6.90;99.90;;;;;;4987201;28;20101;-70
2023/05/01 02:54:56;;;;;;;19.85;10.10;;;6.80;99.90;;;;;;4969718;28;20035;-70
2023/05/01 02:57:22;;;;;;;26.60;11.02;;;6.80;99.90;;;;;;4969857;28;20052;-72
2023/05/01 02:59:48;;;;;;;23.30;10.57;;;6.80;99.90;;;;;;4969666;28;20049;-71
2023/05/01 03:02:14;;;;;;;19.52;10.32;;;6.80;99.90;;;;;;4986974;28;20134;-72
2023/05/01 03:04:41;;;;;;;21.42;10.73;;;6.70;99.90;;;;;;4987150;28;20041;-71
2023/05/01 03:07:07;;;;;;;20.25;9.90;;;6.80;99.90;;;;;;4984738;28;20038;-71
2023/05/01 03:09:32;;;;;;;21.55;10.55;;;6.70;99.90;;;;;;4986888;28;20023;-72
2023/05/01 03:11:58;;;;;;;23.55;10.85;;;6.70;99.90;;;;;;4986332;28;20074;-71
2023/05/01 03:14:24;;;;;;;22.40;11.15;;;6.70;99.90;;;;;;4986573;28;20035;-71
2023/05/01 03:16:50;;;;;;;19.13;9.85;;;6.70;99.90;;;;;;4986959;28;20031;-70
2023/05/01 03:19:15;;;;;;;22.10;9.55;;;6.70;99.90;;;;;;4986823;28;20400;-71
2023/05/01 03:21:41;;;;;;;20.00;9.88;;;6.60;99.90;;;;;;4986518;28;20105;-71
2023/05/01 03:24:07;;;;;;;21.65;10.27;;;6.60;99.90;;;;;;4986520;28;20035;-72
2023/05/01 03:26:32;;;;;;;20.52;9.18;;;6.60;99.90;;;;;;4969039;28;20038;-71
2023/05/01 03:28:58;;;;;;;18.83;9.50;;;6.60;99.90;;;;;;4986327;28;20086;-72
2023/05/01 03:31:24;;;;;;;19.20;9.57;;;6.60;99.90;;;;;;4969555;28;20027;-72
2023/05/01 03:33:50;;;;;;;23.35;9.10;;;6.50;99.90;;;;;;4969308;28;20037;-72
2023/05/01 03:36:16;;;;;;;19.38;9.43;;;6.50;99.90;;;;;;4986172;28;20027;-72
2023/05/01 03:38:41;;;;;;;20.83;9.63;;;6.50;99.90;;;;;;4986173;28;20050;-71
2023/05/01 03:41:07;;;;;;;18.92;9.30;;;6.50;99.90;;;;;;4986385;28;20093;-71
2023/05/01 03:43:33;;;;;;;19.80;9.05;;;6.40;99.90;;;;;;4985930;28;20395;-70
2023/05/01 03:45:59;;;;;;;20.55;8.98;;;6.40;99.90;;;;;;4986224;28;20035;-72
2023/05/01 03:48:25;;;;;;;19.67;9.57;;;6.50;99.90;;;;;;4984968;28;20031;-71
2023/05/01 03:50:51;;;;;;;18.20;8.90;;;6.50;99.90;;;;;;4986026;28;20023;-72
2023/05/01 03:53:17;;;;;;;20.95;9.38;;;6.40;99.90;;;;;;4985685;28;20034;-71
2023/05/01 03:55:43;;;;;;;22.23;9.48;;;6.50;99.90;;;;;;4986086;28;20022;-71
2023/05/01 03:58:09;;;;;;;21.75;9.35;;;6.40;99.90;;;;;;4985027;28;20050;-71
2023/05/01 04:00:36;;;;;;;18.35;9.70;;;6.40;99.90;;;;;;4985939;28;20030;-71
2023/05/01 04:03:02;;;;;;;24.25;9.68;;;6.40;99.90;;;;;;4968356;28;20094;-71
2023/05/01 04:05:29;;;;;;;24.48;10.00;;;6.40;99.90;;;;;;4985723;28;20066;-72
2023/05/01 04:07:55;;;;;;;22.33;9.70;;;6.40;99.90;;;;;;4967591;28;20058;-74
2023/05/01 04:10:20;;;;;;;17.85;8.95;;;6.40;99.90;;;;;;4986030;28;20035;-71
2023/05/01 04:12:46;;;;;;;25.42;9.68;;;6.40;99.90;;;;;;4975997;28;20132;-70
2023/05/01 04:15:11;;;;;;;19.17;9.32;;;6.40;99.90;;;;;;4985698;28;20034;-71
2023/05/01 04:17:38;;;;;;;20.33;9.00;;;6.30;99.90;;;;;;4985692;28;20091;-72
2023/05/01 04:20:07;;;;;;;18.80;9.13;;;6.30;99.90;;;;;;4985225;28;20023;-72
2023/05/01 04:22:33;;;;;;;19.45;10.13;;;6.30;99.90;;;;;;4985775;28;20027;-71
2023/05/01 04:24:58;;;;;;;21.20;9.52;;;6.30;99.90;;;;;;4985604;28;20068;-72
2023/05/01 04:27:24;;;;;;;17.90;9.38;;;6.30;99.90;;;;;;4985495;28;20035;-72
2023/05/01 04:29:50;;;;;;;18.17;9.27;;;6.30;99.90;;;;;;4984670;28;20026;-72
2023/05/01 04:32:16;;;;;;;22.20;9.35;;;6.30;99.90;;;;;;4985465;28;20035;-71
2023/05/01 04:34:43;;;;;;;19.42;9.45;;;6.30;99.90;;;;;;4985479;28;20035;-71
2023/05/01 04:37:09;;;;;;;17.45;9.07;;;6.30;99.90;;;;;;4985693;28;20391;-71
2023/05/01 04:39:35;;;;;;;15.52;8.40;;;6.30;99.90;;;;;;4985215;28;20054;-71
2023/05/01 04:42:01;;;;;;;18.17;9.23;;;6.40;99.90;;;;;;4985244;28;20027;-72
2023/05/01 04:44:27;;;;;;;16.15;9.07;;;6.40;99.90;;;;;;4985794;28;20031;-71
2023/05/01 04:46:53;;;;;;;18.98;9.35;;;6.30;99.90;;;;;;4985527;28;20105;-70
2023/05/01 04:49:18;;;;;;;16.90;9.18;;;6.30;99.90;;;;;;4985386;28;20027;-72
2023/05/01 04:51:44;;;;;;;22.15;9.13;;;6.40;99.90;;;;;;4985296;28;20051;-71
2023/05/01 04:54:10;;;;;;;16.15;8.82;;;6.40;99.90;;;;;;4985208;28;20038;-70
2023/05/01 04:56:35;;;;;;;21.17;9.50;;;6.40;99.90;;;;;;4983995;28;20034;-70
2023/05/01 04:59:01;;;;;;;23.48;9.13;;;6.50;99.90;;;;;;4983950;28;20039;-72
2023/05/01 05:01:26;;;;;;;20.25;9.10;;;6.50;99.90;;;;;;4981627;28;20038;-71
2023/05/01 05:03:52;;;;;;;19.05;8.57;;;6.50;99.90;;;;;;4980628;28;20027;-70
2023/05/01 05:06:17;;;;;;;18.98;8.52;;;6.60;99.90;;;;;;4984269;28;20037;-69
2023/05/01 05:08:43;;;;;;;17.40;8.80;;;6.70;99.90;;;;;;4968372;28;20034;-69
2023/05/01 05:11:09;;;;;;;16.77;8.48;;;6.70;99.90;;;;;;4988774;28;20040;-69
2023/05/01 05:13:34;;;;;;;23.73;8.85;;;6.80;99.90;;;;;;4989184;28;20027;-70
2023/05/01 05:16:00;;;;;;;13.30;8.10;;;6.90;99.90;;;;;;4988552;28;20033;-69
2023/05/01 05:18:25;;;;;;;19.20;8.07;;;6.80;99.90;;;;;;4989243;28;20118;-69
2023/05/01 05:20:51;;;;;;;16.67;7.75;;;6.90;99.90;;;;;;4971479;28;20027;-70
2023/05/01 05:23:16;;;;;;;20.35;8.35;;;7.00;99.90;;;;;;4988400;28;20094;-69
2023/05/01 05:25:42;;;;;;;16.92;7.05;;;7.00;99.90;;;;;;4988426;28;20045;-68
2023/05/01 05:28:08;;;;;;;15.52;7.95;;;7.10;99.90;;;;;;4988757;28;20070;-70
2023/05/01 05:30:33;;;;;;;15.38;7.80;;;7.20;99.90;;;;;;4981915;28;20027;-69
2023/05/01 05:32:59;;;;;;;18.38;7.65;;;7.20;99.90;;;;;;4979322;28;20037;-71
2023/05/01 05:35:26;;;;;;;17.13;6.82;;;7.30;99.90;;;;;;4977002;28;20030;-69
2023/05/01 05:37:51;;;;;;;19.27;7.60;;;7.40;99.90;;;;;;4978994;28;20149;-69
2023/05/01 05:40:18;;;;;;;17.45;7.25;;;7.50;99.90;;;;;;4963588;28;20832;-68
2023/05/01 05:42:43;;;;;;;16.10;6.50;;;7.50;99.90;;;;;;4976457;28;20034;-70
2023/05/01 05:45:09;;;;;;;16.52;7.20;;;7.60;99.90;;;;;;4979618;28;20026;-68
2023/05/01 05:47:35;;;;;;;15.10;6.35;;;7.70;99.90;;;;;;4988388;28;20031;-69
2023/05/01 05:50:01;;;;;;;19.48;6.82;;;7.70;99.90;;;;;;4962993;28;20067;-69
2023/05/01 05:52:26;;;;;;;16.92;7.07;;;7.80;99.90;;;;;;4973219;28;20035;-70
2023/05/01 05:54:52;;;;;;;17.83;7.47;;;7.90;99.90;;;;;;4977755;28;20081;-70
2023/05/01 05:57:17;;;;;;;13.77;6.07;;;7.90;99.90;;;;;;4968731;29;20035;-68
2023/05/01 05:59:43;;;;;;;15.55;7.28;;;8.00;99.90;;;;;;4951764;29;20035;-69
2023/05/01 06:02:09;;;;;;;15.20;6.45;;;8.00;99.90;;;;;;4968707;29;20035;-68
2023/05/01 06:04:35;;;;;;;19.25;7.43;;;8.00;99.90;;;;;;4975729;28;20045;-69
2023/05/01 06:07:00;;;;;;;16.45;7.38;;;8.10;99.90;;;;;;4987959;28;20031;-69
2023/05/01 06:09:26;;;;;;;16.80;7.13;;;8.10;99.90;;;;;;4987602;28;20515;-69
2023/05/01 06:11:51;;;;;;;19.58;7.82;;;8.10;99.90;;;;;;4957939;28;20047;-69
2023/05/01 06:14:17;;;;;;;20.33;8.20;;;8.20;99.90;;;;;;4968452;29;20046;-69
2023/05/01 06:16:43;;;;;;;16.15;7.47;;;8.30;99.90;;;;;;4968475;29;20046;-69
2023/05/01 06:19:11;;;;;;;15.02;6.50;;;8.40;99.90;;;;;;4974867;28;20051;-68
2023/05/01 06:21:36;;;;;;;13.63;5.90;;;8.50;99.90;;;;;;4968320;29;20404;-68
2023/05/01 06:24:02;;;;;;;14.38;6.45;;;8.60;99.90;;;;;;4968741;28;20031;-68
2023/05/01 06:26:27;;;;;;;18.75;6.18;;;8.60;99.90;;;;;;4986620;28;20023;-69
2023/05/01 06:28:54;;;;;;;14.57;6.55;;;8.70;99.90;;;;;;4987285;28;20062;-69
2023/05/01 06:31:19;;;;;;;13.77;6.43;;;8.80;99.90;;;;;;4969362;28;20030;-69
2023/05/01 06:33:45;;;;;;;21.73;5.88;;;8.90;99.90;;;;;;4986938;28;20039;-69
2023/05/01 06:36:11;;;;;;;14.80;6.20;;;9.00;99.90;;;;;;4985498;28;20126;-68
2023/05/01 06:38:36;;;;;;;14.98;5.88;;;9.10;99.90;;;;;;4986717;28;20437;-67
2023/05/01 06:41:04;;;;;;;14.63;5.97;;;9.10;99.90;;;;;;4986193;28;20038;-70
2023/05/01 06:43:30;;;;;;;14.07;6.10;;;9.20;99.90;;;;;;4986373;28;20078;-70
2023/05/01 06:45:56;;;;;;;17.05;6.10;;;9.30;99.90;;;;;;4987416;28;20388;-69
2023/05/01 06:48:22;;;;;;;19.52;6.63;;;9.40;99.90;;;;;;4987204;28;20035;-70
2023/05/01 06:50:48;;;;;;;11.70;5.82;;;9.50;99.90;;;;;;4985050;28;20087;-69
2023/05/01 06:53:13;;;;;;;16.30;6.10;;;9.60;99.90;;;;;;4981211;28;20038;-68
2023/05/01 06:55:39;;;;;;;14.30;5.95;;;9.70;99.90;;;;;;4986017;28;20067;-68
2023/05/01 06:58:05;;;;;;;9.98;5.57;;;9.80;99.90;;;;;;4982315;28;20077;-68
2023/05/01 07:00:31;;;;;;;16.50;5.82;;;9.80;99.90;;;;;;4963753;28;20031;-69
2023/05/01 07:02:56;;;;;;;13.85;5.68;;;9.80;99.90;;;;;;4968406;28;20062;-69
2023/05/01 07:05:22;;;;;;;13.73;6.30;;;9.80;99.90;;;;;;4985419;28;20034;-69
2023/05/01 07:07:48;;;;;;;14.48;6.50;;;9.90;99.90;;;;;;4967329;29;20031;-69
2023/05/01 07:10:14;;;;;;;12.98;5.85;;;9.90;99.90;;;;;;4981700;28;20403;-69
2023/05/01 07:12:40;;;;;;;16.60;6.60;;;10.00;99.90;;;;;;4982188;28;20484;-70
2023/05/01 07:15:06;;;;;;;15.52;6.10;;;10.00;99.90;;;;;;4983155;28;20058;-70
2023/05/01 07:17:33;;;;;;;14.38;6.03;;;10.10;99.90;;;;;;4982929;28;20031;-69
2023/05/01 07:20:00;;;;;;;14.85;6.03;;;10.20;99.90;;;;;;4982313;28;20054;-70
2023/05/01 07:22:25;;;;;;;14.20;6.35;;;10.30;99.90;;;;;;4986182;28;20126;-69
2023/05/01 07:24:51;;;;;;;16.77;6.15;;;10.40;99.90;;;;;;4973860;28;20526;-70
2023/05/01 07:27:16;;;;;;;14.90;5.60;;;10.50;99.90;;;;;;4984814;28;20081;-68
2023/05/01 07:29:43;;;;;;;14.32;5.97;;;10.60;99.90;;;;;;4974945;28;20117;-69
2023/05/01 07:32:08;;;;;;;19.65;6.78;;;10.70;99.90;;;;;;4985880;28;20027;-69
2023/05/01 07:34:34;;;;;;;15.27;6.15;;;10.80;99.90;;;;;;4986158;28;20029;-69
2023/05/01 07:37:00;;;;;;;16.83;5.90;;;10.90;99.90;;;;;;4984291;28;20058;-70
2023/05/01 07:39:25;;;;;;;17.30;6.65;;;11.10;99.90;;;;;;4969040;28;20049;-69
2023/05/01 07:41:51;;;;;;;19.45;6.05;;;11.20;99.90;;;;;;4986180;28;20095;-70
2023/05/01 07:44:17;;;;;;;13.70;6.22;;;11.20;99.90;;;;;;4984259;28;20030;-69
2023/05/01 07:46:42;;;;;;;17.00;6.40;;;11.20;99.90;;;;;;4980262;28;20039;-69
2023/05/01 07:49:08;;;;;;;12.55;6.22;;;11.30;99.90;;;;;;4985698;28;20175;-69
2023/05/01 07:51:34;;;;;;;14.10;5.90;;;11.40;99.90;;;;;;4976743;28;20113;-70
2023/05/01 07:54:03;;;;;;;14.00;6.35;;;11.60;99.90;;;;;;4986305;28;20578;-70
2023/05/01 07:56:30;;;;;;;16.45;6.07;;;11.80;99.90;;;;;;4984461;28;20050;-68
2023/05/01 07:58:55;;;;;;;12.85;5.95;;;12.00;99.90;;;;;;4984345;28;20043;-69
2023/05/01 08:01:21;;;;;;;13.85;6.05;;;12.10;99.90;;;;;;4985963;28;20086;-70
2023/05/01 08:03:47;;;;;;;12.48;5.88;;;12.20;99.90;;;;;;4976856;28;20121;-69
2023/05/01 08:06:13;;;;;;;13.32;6.28;;;12.30;99.90;;;;;;4985927;28;20030;-69
2023/05/01 08:08:38;;;;;;;14.38;5.88;;;12.40;99.90;;;;;;4984642;28;20137;-69
2023/05/01 08:11:04;;;;;;;13.60;5.55;;;12.50;99.90;;;;;;4979948;28;20033;-69
2023/05/01 08:13:30;;;;;;;12.73;5.57;;;12.60;99.90;;;;;;4982659;28;20019;-71
2023/05/01 08:16:02;;;;;;;14.05;6.25;;;12.80;99.90;;;;;;4980860;28;20062;-69
2023/05/01 08:18:29;;;;;;;13.38;5.50;;;12.90;99.90;;;;;;4971741;28;20070;-70
2023/05/01 08:20:55;;;;;;;13.07;5.47;;;13.20;99.90;;;;;;4977894;28;20046;-69
2023/05/01 08:23:22;;;;;;;14.07;5.65;;;13.30;99.90;;;;;;4956208;28;21844;-70
2023/05/01 08:25:50;;;;;;;9.15;4.57;;;13.50;99.90;;;;;;4955431;28;20079;-69
2023/05/01 08:28:16;;;;;;;8.77;3.83;;;13.70;99.90;;;;;;4956199;28;20023;-68
2023/05/01 08:30:43;;;;;;;8.23;4.28;;;13.70;99.90;;;;;;4980871;28;20031;-69
2023/05/01 08:33:09;;;;;;;15.52;4.60;;;13.80;99.90;;;;;;4956045;28;20030;-69
2023/05/01 08:35:34;;;;;;;11.23;4.60;;;14.00;99.90;;;;;;4977165;28;20533;-69
2023/05/01 08:38:00;;;;;;;10.48;4.18;;;14.10;99.90;;;;;;4976788;28;20046;-70
2023/05/01 08:40:26;;;;;;;12.88;4.60;;;14.30;99.90;;;;;;4976752;28;20063;-69
2023/05/01 08:42:54;;;;;;;12.32;4.03;;;14.40;99.90;;;;;;4974830;28;20034;-71
2023/05/01 08:45:22;;;;;;;11.10;4.15;;;14.60;99.90;;;;;;4979472;28;20039;-69
2023/05/01 08:47:48;;;;;;;7.97;3.65;;;14.80;99.90;;;;;;4984550;28;20027;-69
2023/05/01 08:50:16;;;;;;;10.80;3.85;;;14.90;99.90;;;;;;4989385;28;20039;-70
2023/05/01 08:52:42;;;;;;;10.55;4.35;;;15.00;99.90;;;;;;4989142;28;20039;-69
2023/05/01 08:55:13;;;;;;;7.63;3.78;;;15.00;99.90;;;;;;4988971;28;20077;-69
2023/05/01 08:57:44;;;;;;;10.07;3.92;;;15.10;99.90;;;;;;4985967;28;20027;-68
2023/05/01 09:00:16;;;;;;;8.65;3.80;;;15.10;99.90;;;;;;4979327;28;20022;-68
2023/05/01 09:02:43;;;;;;;10.63;3.97;;;15.30;99.90;;;;;;4989209;28;20101;-69
2023/05/01 09:05:09;;;;;;;8.50;3.80;;;15.40;99.90;;;;;;4988263;28;20034;-69
2023/05/01 09:07:36;;;;;;;9.68;3.97;;;15.60;99.90;;;;;;4979060;28;20038;-69
2023/05/01 09:10:01;;;;;;;8.45;4.22;;;15.70;99.90;;;;;;4966503;28;20031;-69
2023/05/01 09:12:28;;;;;;;9.90;3.72;;;15.80;99.90;;;;;;4979219;28;20075;-70
2023/05/01 09:14:55;;;;;;;13.18;4.22;;;15.90;99.90;;;;;;4971716;28;20049;-69
2023/05/01 09:17:22;;;;;;;9.57;4.28;;;16.20;99.90;;;;;;4986539;28;20023;-70
2023/05/01 09:19:49;;;;;;;12.45;4.45;;;16.20;99.90;;;;;;4988301;28;20050;-69
2023/05/01 09:22:17;;;;;;;11.57;4.30;;;16.30;99.90;;;;;;4981944;28;20027;-69
2023/05/01 09:24:43;;;;;;;11.20;4.65;;;16.40;99.90;;;;;;4983719;28;20027;-69
2023/05/01 09:27:12;;;;;;;9.20;4.20;;;16.50;99.90;;;;;;4980997;28;20090;-70
2023/05/01 09:29:42;;;;;;;14.23;4.28;;;16.50;99.90;;;;;;4984435;28;20453;-68
2023/05/01 09:32:19;;;;;;;10.13;4.22;;;16.60;99.90;;;;;;4982292;28;20023;-69
2023/05/01 09:34:49;;;;;;;7.07;3.47;;;16.70;99.90;;;;;;4981771;28;20611;-69
2023/05/01 09:37:29;;;;;;;10.85;4.00;;;16.80;99.90;;;;;;4977292;28;20038;-69
2023/05/01 09:40:08;;;;;;;11.70;4.85;;;16.90;99.90;;;;;;4977400;28;20042;-69
2023/05/01 09:42:36;;;;;;;11.80;4.47;;;16.80;99.90;;;;;;4983576;28;20536;-70
2023/05/01 09:45:04;;;;;;;8.73;3.92;;;16.80;99.90;;;;;;4981871;28;20027;-70
2023/05/01 09:47:30;;;;;;;9.27;4.30;;;16.70;99.90;;;;;;4977742;28;20082;-70
2023/05/01 09:49:58;;;;;;;9.90;4.47;;;16.80;99.90;;;;;;4986098;28;20030;-70
2023/05/01 09:52:27;;;;;;;9.00;3.95;;;16.90;99.90;;;;;;4979996;28;20026;-69
2023/05/01 09:55:16;;;;;;;8.93;4.40;;;17.00;99.90;;;;;;4983843;28;20027;-70
2023/05/01 09:57:43;;;;;;;10.32;4.30;;;17.10;99.90;;;;;;4988003;28;20130;-69
2023/05/01 10:00:11;;;;;;;9.63;4.68;;;17.10;99.90;;;;;;4988036;28;20036;-69
2023/05/01 10:02:37;;;;;;;13.55;4.50;;;17.30;99.90;;;;;;4985828;28;20018;-70
2023/05/01 10:05:03;;;;;;;10.50;3.88;;;17.40;99.90;;;;;;4984245;28;20423;-70
2023/05/01 10:07:29;;;;;;;11.80;4.40;;;17.60;99.90;;;;;;4987684;28;20102;-70
2023/05/01 10:09:55;;;;;;;9.93;4.47;;;17.70;99.90;;;;;;4987403;28;20042;-69
2023/05/01 10:12:28;;;;;;;12.82;4.20;;;17.70;99.90;;;;;;4985479;28;20058;-70
2023/05/01 10:14:55;;;;;;;9.25;4.30;;;17.70;99.90;;;;;;4968804;28;20041;-70
2023/05/01 10:17:21;;;;;;;7.88;4.25;;;17.60;99.90;;;;;;4987686;28;20077;-69
2023/05/01 10:19:47;;;;;;;8.32;3.60;;;17.60;99.90;;;;;;4987923;28;20066;-69
2023/05/01 10:22:14;;;;;;;11.15;3.95;;;17.50;99.90;;;;;;4987487;28;20043;-69
2023/05/01 10:24:40;;;;;;;9.70;3.95;;;17.50;99.90;;;;;;4986518;28;20049;-69
2023/05/01 10:27:07;;;;;;;9.68;4.25;;;17.50;99.90;;;;;;4987589;28;20076;-68
2023/05/01 10:29:38;;;;;;;8.93;4.25;;;17.40;99.90;;;;;;4986840;28;20438;-67
2023/05/01 10:32:08;;;;;;;11.63;4.20;;;17.50;99.90;;;;;;4983560;28;20039;-69
2023/05/01 10:34:38;;;;;;;8.85;3.65;;;17.50;99.90;;;;;;4987353;28;20081;-68
2023/05/01 10:37:12;;;;;;;7.75;3.78;;;17.60;99.90;;;;;;4987230;28;20039;-68
2023/05/01 10:39:37;;;;;;;11.50;3.97;;;17.60;99.90;;;;;;4984942;28;20039;-67
2023/05/01 10:42:12;;;;;;;8.32;3.78;;;17.60;99.90;;;;;;4986243;28;20034;-68
2023/05/01 10:44:39;;;;;;;8.80;3.90;;;17.70;99.90;;;;;;4967309;29;20019;-68
2023/05/01 10:47:23;;;;;;;9.32;4.35;;;17.70;99.90;;;;;;4982805;28;20031;-69
2023/05/01 10:50:08;;;;;;;12.90;5.25;;;17.90;99.90;;;;;;4987097;28;20022;-69
2023/05/01 10:53:11;;;;;;;16.80;7.65;;;18.10;99.90;;;;;;4967018;29;20058;-69
2023/05/01 10:55:38;;;;;;;9.73;4.45;;;18.30;99.90;;;;;;4967549;29;20101;-68
2023/05/01 10:58:04;;;;;;;8.35;3.85;;;18.50;99.90;;;;;;4977797;28;20051;-67
2023/05/01 11:00:32;;;;;;;7.75;3.90;;;18.60;99.90;;;;;;4985518;28;20031;-70
2023/05/01 11:03:20;;;;;;;7.50;3.60;;;18.70;99.90;;;;;;4986746;28;20031;-69
2023/05/01 11:06:03;;;;;;;6.10;3.75;;;18.80;99.90;;;;;;4985266;28;20035;-68
2023/05/01 11:08:37;;;;;;;10.40;3.90;;;19.00;99.90;;;;;;4984644;28;20058;-69
2023/05/01 11:11:25;;;;;;;8.88;3.55;;;19.10;99.90;;;;;;4985930;28;20038;-69
2023/05/01 11:14:01;;;;;;;7.97;3.90;;;19.30;99.90;;;;;;4957537;29;20062;-70
2023/05/01 11:16:36;;;;;;;11.18;4.05;;;19.60;99.90;;;;;;4951129;28;20038;-69
2023/05/01 11:19:02;;;;;;;9.73;4.25;;;19.70;99.90;;;;;;4985911;28;20041;-68
2023/05/01 11:21:32;;;;;;;7.07;3.85;;;19.70;99.90;;;;;;4985371;28;20076;-66
2023/05/01 11:24:02;;;;;;;11.50;3.70;;;19.80;99.90;;;;;;4981766;28;20038;-69
2023/05/01 11:26:28;;;;;;;7.80;3.10;;;19.80;99.90;;;;;;4977897;28;20059;-69
2023/05/01 11:28:58;;;;;;;7.88;3.38;;;19.80;99.90;;;;;;4958976;28;20090;-69
2023/05/01 11:31:27;;;;;;;9.25;3.17;;;19.90;99.90;;;;;;4978153;28;20031;-70
2023/05/01 11:33:57;;;;;;;7.20;3.30;;;20.00;99.90;;;;;;4984946;28;20035;-69
2023/05/01 11:36:23;;;;;;;9.50;3.50;;;20.20;99.90;;;;;;4986036;28;20034;-69
2023/05/01 11:38:55;;;;;;;6.22;3.35;;;20.30;99.90;;;;;;4984294;28;20038;-68
2023/05/01 11:41:22;;;;;;;6.65;2.95;;;20.40;99.90;;;;;;4973814;28;20384;-68
2023/05/01 11:43:55;;;;;;;8.27;3.25;;;20.40;99.90;;;;;;4975440;28;20031;-68
2023/05/01 11:46:28;;;;;;;14.88;2.72;;;20.60;99.90;;;;;;4985146;28;20031;-68
2023/05/01 11:48:55;;;;;;;6.90;2.83;;;20.70;99.90;;;;;;4985550;28;20042;-68
2023/05/01 11:51:22;;;;;;;7.10;2.85;;;21.00;99.90;;;;;;4984502;28;20042;-68
2023/05/01 11:54:02;;;;;;;6.75;2.80;;;21.00;99.90;;;;;;4968168;28;20037;-66
2023/05/01 11:56:28;;;;;;;7.22;3.10;;;21.10;99.90;;;;;;4985321;28;20035;-67
2023/05/01 11:58:56;;;;;;;6.13;3.00;;;21.10;99.90;;;;;;4975139;28;20043;-68
2023/05/01 12:01:35;;;;;;;10.88;3.35;;;21.20;99.90;;;;;;4969485;28;20034;-70
2023/05/01 12:04:02;;;;;;;7.35;2.90;;;21.20;99.90;;;;;;4983944;28;20087;-67
2023/05/01 12:06:44;;;;;;;5.85;2.90;;;21.30;99.90;;;;;;4984174;28;20023;-69
2023/05/01 12:09:15;;;;;;;6.10;3.05;;;21.30;99.90;;;;;;4953631;28;20671;-68
2023/05/01 12:11:41;;;;;;;9.82;2.92;;;21.40;99.90;;;;;;4964199;28;20051;-69
2023/05/01 12:14:08;;;;;;;8.48;2.85;;;21.50;99.90;;;;;;4964058;29;20058;-66
2023/05/01 12:16:35;;;;;;;6.55;2.95;;;21.60;99.90;;;;;;4964327;29;20034;-67
2023/05/01 12:19:01;;;;;;;9.63;3.00;;;21.60;99.90;;;;;;4965462;28;20103;-69
2023/05/01 12:21:27;;;;;;;5.30;2.83;;;21.70;99.90;;;;;;4965004;29;20099;-67
2023/05/01 12:23:53;;;;;;;10.93;3.00;;;21.80;99.90;;;;;;4964131;29;20023;-69
2023/05/01 12:26:26;;;;;;;5.00;2.55;;;21.90;99.90;;;;;;4964596;29;20046;-67
2023/05/01 12:29:02;;;;;;;5.07;2.20;;;22.10;99.90;;;;;;4948478;29;20126;-69
2023/05/01 12:31:28;;;;;;;6.10;2.53;;;22.10;99.90;;;;;;4965066;29;20035;-68
2023/05/01 12:33:56;;;;;;;6.90;2.60;;;22.20;99.90;;;;;;4965531;29;20038;-68
2023/05/01 12:36:24;;;;;;;6.53;2.88;;;22.40;99.90;;;;;;4965648;29;20073;-68
2023/05/01 12:39:03;;;;;;;8.85;2.90;;;22.60;99.90;;;;;;4965581;29;20107;-69
2023/05/01 12:41:43;;;;;;;7.70;2.95;;;23.00;99.90;;;;;;4965857;29;20393;-67
2023/05/01 12:44:16;;;;;;;5.60;2.70;;;23.20;99.90;;;;;;4965328;29;20031;-68
2023/05/01 12:46:43;;;;;;;9.80;3.60;;;23.50;99.90;;;;;;4964417;29;20094;-67
2023/05/01 12:49:09;;;;;;;8.43;3.70;;;23.60;99.90;;;;;;4964777;29;20036;-69